Hartford, Michigan
Current Conditions -  °F | °C
As of 2:35 AM on Wednesday 22 Oct 2014 (Local Time) from KLWA Reporting Station
Clear Clear  
Wind Chill:   Ceiling: Unl
Heat Index:   Visibility: 10mi
Dew Point:   Wind: 3mph
Humidity: 95%   Direction: 80°E
Pressure: 30.27"   Gusts: NA
Location:  42.21°N, 86.17°W
Report Text: KLWA 220635Z AUTO 08003KT 10SM CLR 02/01 A3027 RMK AO2 T00150008
Loading
Personal Weather Stations






























Interactive Weather Map
Tropical Storm Tracking
New forecast layout! Learn more

10-Day Weather Forecast

Advertisements
Track Severe Weather on mobile